FIN1934 EKCH-EFHK
Flight info
| Callsign | FIN1934 |
|---|---|
| Flight time | 1h 9m |
| Altitude | 41000 |
| Route | KEMAX Q44 IDPAL DCT MOVIS DCT ALAMI/N0480F390 DCT OKEVU DCT EVADI Y370 DIVAM |
| Aircraft | A359/H-SDE2E3GHIJ3J4J5LM1ORWXY/LB1D1 |
Departure
| Time | 2026-05-05 18:41 |
|---|---|
| Airport | Copenhagen Kastrup Airport (EKCH) |
Arrival
| Time | 2026-05-05 19:50 |
|---|---|
| Airport | Helsinki Vantaa Airport (EFHK) |
| Time | Latitude | Longitude | Altitude | Speed | Heading |
|---|---|---|---|---|---|
| 2026-05-05 18:06 | 55.62620 | 12.64408 | 28 ft | 0 kts | 67° |
| 2026-05-05 18:27 | 55.62615 | 12.64387 | 24 ft | 2 kts | 68° |
| 2026-05-05 18:27 | 55.62609 | 12.64360 | 29 ft | 2 kts | 69° |
| 2026-05-05 18:27 | 55.62603 | 12.64333 | 27 ft | 2 kts | 70° |
| 2026-05-05 18:28 | 55.62595 | 12.64287 | 29 ft | 2 kts | 74° |
| 2026-05-05 18:28 | 55.62590 | 12.64259 | 29 ft | 2 kts | 63° |
| 2026-05-05 18:28 | 55.62580 | 12.64237 | 29 ft | 2 kts | 40° |
| 2026-05-05 18:29 | 55.62567 | 12.64219 | 29 ft | 2 kts | 37° |
| 2026-05-05 18:29 | 55.62555 | 12.64200 | 29 ft | 2 kts | 47° |
| 2026-05-05 18:29 | 55.62546 | 12.64176 | 29 ft | 2 kts | 90° |
| 2026-05-05 18:29 | 55.62552 | 12.64139 | 29 ft | 2 kts | 113° |
| 2026-05-05 18:30 | 55.62556 | 12.64122 | 29 ft | 2 kts | 116° |
| 2026-05-05 18:30 | 55.62564 | 12.64096 | 29 ft | 2 kts | 118° |
| 2026-05-05 18:30 | 55.62571 | 12.64070 | 29 ft | 2 kts | 120° |
| 2026-05-05 18:30 | 55.62580 | 12.64045 | 29 ft | 2 kts | 121° |
| 2026-05-05 18:31 | 55.62587 | 12.64026 | 29 ft | 1 kts | 122° |
| 2026-05-05 18:31 | 55.62589 | 12.64020 | 29 ft | 0 kts | 123° |
| 2026-05-05 18:33 | 55.62588 | 12.64021 | 29 ft | 1 kts | 123° |
| 2026-05-05 18:34 | 55.62571 | 12.64067 | 29 ft | 9 kts | 123° |
| 2026-05-05 18:34 | 55.62526 | 12.64191 | 29 ft | 14 kts | 123° |
| 2026-05-05 18:34 | 55.62461 | 12.64354 | 26 ft | 18 kts | 127° |
| 2026-05-05 18:34 | 55.62368 | 12.64436 | 27 ft | 8 kts | 184° |
| 2026-05-05 18:35 | 55.62341 | 12.64432 | 26 ft | 0 kts | 184° |
| 2026-05-05 18:35 | 55.62329 | 12.64426 | 26 ft | 6 kts | 195° |
| 2026-05-05 18:35 | 55.62255 | 12.64397 | 26 ft | 14 kts | 185° |
| 2026-05-05 18:35 | 55.62139 | 12.64429 | 25 ft | 18 kts | 169° |
| 2026-05-05 18:36 | 55.62005 | 12.64473 | 25 ft | 21 kts | 169° |
| 2026-05-05 18:36 | 55.61862 | 12.64520 | 26 ft | 22 kts | 169° |
| 2026-05-05 18:36 | 55.61778 | 12.64548 | 28 ft | 7 kts | 169° |
| 2026-05-05 18:36 | 55.61715 | 12.64568 | 24 ft | 11 kts | 173° |
| 2026-05-05 18:37 | 55.61635 | 12.64521 | 26 ft | 14 kts | 211° |
| 2026-05-05 18:37 | 55.61544 | 12.64417 | 28 ft | 17 kts | 213° |
| 2026-05-05 18:37 | 55.61434 | 12.64290 | 28 ft | 21 kts | 213° |
| 2026-05-05 18:37 | 55.61305 | 12.64142 | 28 ft | 24 kts | 213° |
| 2026-05-05 18:38 | 55.61158 | 12.63974 | 28 ft | 26 kts | 213° |
| 2026-05-05 18:38 | 55.60996 | 12.63788 | 28 ft | 29 kts | 213° |
| 2026-05-05 18:38 | 55.60828 | 12.63595 | 26 ft | 29 kts | 213° |
| 2026-05-05 18:38 | 55.60661 | 12.63400 | 28 ft | 26 kts | 216° |
| 2026-05-05 18:39 | 55.60521 | 12.63188 | 26 ft | 20 kts | 221° |
| 2026-05-05 18:39 | 55.60447 | 12.63120 | 24 ft | 12 kts | 180° |
| 2026-05-05 18:39 | 55.60377 | 12.63201 | 26 ft | 13 kts | 130° |
| 2026-05-05 18:39 | 55.60344 | 12.63272 | 30 ft | 5 kts | 127° |
| 2026-05-05 18:40 | 55.60340 | 12.63321 | 29 ft | 5 kts | 80° |
| 2026-05-05 18:40 | 55.60371 | 12.63398 | 29 ft | 11 kts | 41° |
| 2026-05-05 18:40 | 55.60453 | 12.63524 | 26 ft | 28 kts | 41° |
| 2026-05-05 18:40 | 55.60788 | 12.64043 | 30 ft | 102 kts | 41° |
| 2026-05-05 18:41 | 55.61501 | 12.65146 | 31 ft | 167 kts | 42° |
| 2026-05-05 18:41 | 55.62431 | 12.66600 | 630 ft | 181 kts | 39° |
| 2026-05-05 18:41 | 55.63362 | 12.68047 | 1673 ft | 179 kts | 40° |
| 2026-05-05 18:41 | 55.64358 | 12.69587 | 2202 ft | 202 kts | 40° |
| 2026-05-05 18:42 | 55.65460 | 12.71289 | 2785 ft | 220 kts | 39° |
| 2026-05-05 18:42 | 55.66692 | 12.73128 | 3317 ft | 241 kts | 39° |
| 2026-05-05 18:42 | 55.67999 | 12.75062 | 4135 ft | 248 kts | 39° |
| 2026-05-05 18:42 | 55.69333 | 12.77044 | 5040 ft | 253 kts | 39° |
| 2026-05-05 18:43 | 55.70674 | 12.79043 | 5964 ft | 258 kts | 39° |
| 2026-05-05 18:43 | 55.72072 | 12.81130 | 6784 ft | 267 kts | 39° |
| 2026-05-05 18:43 | 55.73522 | 12.83300 | 7599 ft | 277 kts | 38° |
| 2026-05-05 18:43 | 55.75023 | 12.85554 | 8478 ft | 286 kts | 38° |
| 2026-05-05 18:44 | 55.76531 | 12.87909 | 9437 ft | 292 kts | 39° |
| 2026-05-05 18:44 | 55.78073 | 12.90353 | 10267 ft | 303 kts | 39° |
| 2026-05-05 18:44 | 55.79713 | 12.92939 | 10680 ft | 328 kts | 39° |
| 2026-05-05 18:44 | 55.81482 | 12.95722 | 11109 ft | 349 kts | 39° |
| 2026-05-05 18:45 | 55.83326 | 12.98634 | 11881 ft | 359 kts | 39° |
| 2026-05-05 18:45 | 55.85191 | 13.01583 | 12709 ft | 366 kts | 39° |
| 2026-05-05 18:45 | 55.87111 | 13.04621 | 13572 ft | 373 kts | 38° |
| 2026-05-05 18:45 | 55.89069 | 13.07722 | 14341 ft | 380 kts | 38° |
| 2026-05-05 18:46 | 55.91065 | 13.10884 | 15058 ft | 387 kts | 38° |
| 2026-05-05 18:46 | 55.93088 | 13.14095 | 15829 ft | 392 kts | 38° |
| 2026-05-05 18:46 | 55.95141 | 13.17358 | 16581 ft | 398 kts | 38° |
| 2026-05-05 18:46 | 55.97227 | 13.20677 | 17356 ft | 403 kts | 38° |
| 2026-05-05 18:47 | 55.99338 | 13.24041 | 18135 ft | 409 kts | 38° |
| 2026-05-05 18:47 | 56.01478 | 13.27458 | 18849 ft | 415 kts | 38° |
| 2026-05-05 18:47 | 56.03642 | 13.30918 | 19583 ft | 419 kts | 38° |
| 2026-05-05 18:47 | 56.05826 | 13.34415 | 20320 ft | 424 kts | 38° |
| 2026-05-05 18:48 | 56.08008 | 13.37914 | 21040 ft | 429 kts | 38° |
| 2026-05-05 18:48 | 56.10268 | 13.41544 | 21756 ft | 433 kts | 38° |
| 2026-05-05 18:48 | 56.12440 | 13.45270 | 22433 ft | 442 kts | 43° |
| 2026-05-05 18:48 | 56.14434 | 13.49577 | 23059 ft | 451 kts | 49° |
| 2026-05-05 18:49 | 56.16313 | 13.54133 | 23728 ft | 456 kts | 51° |
| 2026-05-05 18:49 | 56.18147 | 13.58837 | 24331 ft | 461 kts | 52° |
| 2026-05-05 18:49 | 56.19947 | 13.63549 | 24934 ft | 464 kts | 53° |
| 2026-05-05 18:49 | 56.21783 | 13.68354 | 25524 ft | 468 kts | 53° |
| 2026-05-05 18:50 | 56.23641 | 13.73187 | 26118 ft | 471 kts | 52° |
| 2026-05-05 18:50 | 56.25524 | 13.78047 | 26708 ft | 475 kts | 52° |
| 2026-05-05 18:50 | 56.27424 | 13.82930 | 27295 ft | 478 kts | 52° |
| 2026-05-05 18:50 | 56.29343 | 13.87849 | 27853 ft | 482 kts | 52° |
| 2026-05-05 18:51 | 56.31274 | 13.92801 | 28469 ft | 485 kts | 53° |
| 2026-05-05 18:51 | 56.33221 | 13.97807 | 29035 ft | 489 kts | 52° |
| 2026-05-05 18:51 | 56.35189 | 14.02875 | 29434 ft | 496 kts | 52° |
| 2026-05-05 18:51 | 56.37168 | 14.07983 | 29954 ft | 499 kts | 52° |
| 2026-05-05 18:52 | 56.39165 | 14.13153 | 30430 ft | 502 kts | 52° |
| 2026-05-05 18:52 | 56.41137 | 14.18270 | 30884 ft | 505 kts | 53° |
| 2026-05-05 18:52 | 56.43146 | 14.23497 | 31323 ft | 507 kts | 53° |
| 2026-05-05 18:52 | 56.45165 | 14.28759 | 31759 ft | 510 kts | 53° |
| 2026-05-05 18:53 | 56.47194 | 14.34053 | 32190 ft | 513 kts | 53° |
| 2026-05-05 18:53 | 56.49253 | 14.39391 | 32598 ft | 515 kts | 52° |
| 2026-05-05 18:53 | 56.51312 | 14.44706 | 32992 ft | 518 kts | 52° |
| 2026-05-05 18:53 | 56.53389 | 14.50067 | 33405 ft | 521 kts | 53° |
| 2026-05-05 18:54 | 56.55462 | 14.55430 | 33641 ft | 526 kts | 52° |
| 2026-05-05 18:54 | 56.57569 | 14.60897 | 33935 ft | 530 kts | 52° |
| 2026-05-05 18:54 | 56.59688 | 14.66415 | 34231 ft | 531 kts | 53° |
| 2026-05-05 18:54 | 56.61798 | 14.71927 | 34571 ft | 532 kts | 53° |
| 2026-05-05 18:55 | 56.63875 | 14.77370 | 34975 ft | 531 kts | 53° |
| 2026-05-05 18:55 | 56.65973 | 14.82882 | 35370 ft | 530 kts | 53° |
| 2026-05-05 18:55 | 56.68070 | 14.88404 | 35738 ft | 530 kts | 53° |
| 2026-05-05 18:55 | 56.70166 | 14.93932 | 36085 ft | 530 kts | 53° |
| 2026-05-05 18:56 | 56.72259 | 14.99467 | 36430 ft | 530 kts | 53° |
| 2026-05-05 18:56 | 56.74354 | 15.05017 | 36821 ft | 530 kts | 53° |
| 2026-05-05 18:56 | 56.76442 | 15.10561 | 37098 ft | 532 kts | 53° |
| 2026-05-05 18:56 | 56.78533 | 15.16124 | 37407 ft | 532 kts | 53° |
| 2026-05-05 18:57 | 56.80625 | 15.21708 | 37749 ft | 531 kts | 53° |
| 2026-05-05 18:57 | 56.82682 | 15.27208 | 38096 ft | 530 kts | 53° |
| 2026-05-05 18:57 | 56.84762 | 15.32781 | 38424 ft | 530 kts | 53° |
| 2026-05-05 18:57 | 56.86838 | 15.38360 | 38700 ft | 530 kts | 54° |
| 2026-05-05 18:58 | 56.88912 | 15.43944 | 38877 ft | 531 kts | 54° |
| 2026-05-05 18:58 | 56.90990 | 15.49550 | 38904 ft | 532 kts | 54° |
| 2026-05-05 18:58 | 56.95146 | 15.60804 | 38937 ft | 533 kts | 54° |
| 2026-05-05 18:59 | 56.99272 | 15.72030 | 38912 ft | 534 kts | 54° |
| 2026-05-05 18:59 | 57.03424 | 15.83381 | 38909 ft | 535 kts | 54° |
| 2026-05-05 19:00 | 57.07569 | 15.94766 | 38912 ft | 535 kts | 54° |
| 2026-05-05 19:00 | 57.11670 | 16.06082 | 38912 ft | 535 kts | 54° |
| 2026-05-05 19:01 | 57.15788 | 16.17500 | 38932 ft | 535 kts | 54° |
| 2026-05-05 19:01 | 57.19904 | 16.28966 | 38909 ft | 535 kts | 54° |
| 2026-05-05 19:02 | 57.24274 | 16.39961 | 38908 ft | 534 kts | 49° |
| 2026-05-05 19:02 | 57.28918 | 16.50664 | 38912 ft | 533 kts | 49° |
| 2026-05-05 19:03 | 57.33593 | 16.61350 | 38912 ft | 533 kts | 49° |
| 2026-05-05 19:03 | 57.38254 | 16.72058 | 38914 ft | 534 kts | 49° |
| 2026-05-05 19:04 | 57.42909 | 16.82822 | 38911 ft | 536 kts | 49° |
| 2026-05-05 19:04 | 57.47574 | 16.93669 | 38911 ft | 536 kts | 49° |
| 2026-05-05 19:05 | 57.52218 | 17.04519 | 38914 ft | 536 kts | 49° |
| 2026-05-05 19:05 | 57.56829 | 17.15339 | 38909 ft | 536 kts | 49° |
| 2026-05-05 19:06 | 57.61464 | 17.26267 | 38918 ft | 536 kts | 49° |
| 2026-05-05 19:06 | 57.66085 | 17.37210 | 38922 ft | 536 kts | 49° |
| 2026-05-05 19:07 | 57.69913 | 17.46314 | 38922 ft | 536 kts | 50° |
| 2026-05-05 19:07 | 57.75259 | 17.59085 | 38921 ft | 536 kts | 50° |
| 2026-05-05 19:08 | 57.79850 | 17.70107 | 38931 ft | 536 kts | 50° |
| 2026-05-05 19:08 | 57.84437 | 17.81172 | 38917 ft | 536 kts | 50° |
| 2026-05-05 19:09 | 57.88984 | 17.92190 | 38911 ft | 537 kts | 50° |
| 2026-05-05 19:09 | 57.93560 | 18.03331 | 38911 ft | 537 kts | 50° |
| 2026-05-05 19:10 | 57.98115 | 18.14473 | 38914 ft | 537 kts | 50° |
| 2026-05-05 19:10 | 58.02666 | 18.25657 | 38923 ft | 537 kts | 50° |
| 2026-05-05 19:11 | 58.07208 | 18.36871 | 38912 ft | 538 kts | 50° |
| 2026-05-05 19:11 | 58.11717 | 18.48055 | 38915 ft | 538 kts | 50° |
| 2026-05-05 19:12 | 58.16254 | 18.59365 | 38909 ft | 538 kts | 50° |
| 2026-05-05 19:12 | 58.20766 | 18.70665 | 38909 ft | 538 kts | 50° |
| 2026-05-05 19:13 | 58.24514 | 18.80091 | 38908 ft | 538 kts | 51° |
| 2026-05-05 19:13 | 58.29758 | 18.93346 | 38898 ft | 539 kts | 50° |
| 2026-05-05 19:14 | 58.33496 | 19.02838 | 38898 ft | 539 kts | 51° |
| 2026-05-05 19:14 | 58.37983 | 19.14283 | 38897 ft | 539 kts | 51° |
| 2026-05-05 19:15 | 58.42468 | 19.25776 | 38898 ft | 539 kts | 51° |
| 2026-05-05 19:15 | 58.46941 | 19.37296 | 38899 ft | 540 kts | 51° |
| 2026-05-05 19:16 | 58.51376 | 19.48774 | 38894 ft | 540 kts | 51° |
| 2026-05-05 19:16 | 58.55832 | 19.60363 | 38890 ft | 540 kts | 51° |
| 2026-05-05 19:17 | 58.60277 | 19.71981 | 38895 ft | 540 kts | 51° |
| 2026-05-05 19:17 | 58.64717 | 19.83640 | 38905 ft | 540 kts | 51° |
| 2026-05-05 19:18 | 58.69143 | 19.95322 | 38888 ft | 541 kts | 51° |
| 2026-05-05 19:18 | 58.73569 | 20.07059 | 38899 ft | 542 kts | 52° |
| 2026-05-05 19:19 | 58.77965 | 20.18779 | 38886 ft | 542 kts | 52° |
| 2026-05-05 19:19 | 58.82371 | 20.30580 | 38880 ft | 542 kts | 52° |
| 2026-05-05 19:20 | 58.86766 | 20.42412 | 38895 ft | 542 kts | 52° |
| 2026-05-05 19:20 | 58.91161 | 20.54302 | 38885 ft | 543 kts | 52° |
| 2026-05-05 19:21 | 58.95545 | 20.66224 | 38884 ft | 543 kts | 52° |
| 2026-05-05 19:21 | 58.99926 | 20.78197 | 38880 ft | 543 kts | 52° |
| 2026-05-05 19:22 | 59.04258 | 20.90095 | 38893 ft | 543 kts | 52° |
| 2026-05-05 19:22 | 59.08437 | 21.02332 | 38890 ft | 543 kts | 57° |
| 2026-05-05 19:23 | 59.12306 | 21.15009 | 38881 ft | 544 kts | 58° |
| 2026-05-05 19:23 | 59.16158 | 21.27682 | 38879 ft | 544 kts | 57° |
| 2026-05-05 19:24 | 59.20050 | 21.40313 | 38374 ft | 541 kts | 57° |
| 2026-05-05 19:24 | 59.21968 | 21.46513 | 37712 ft | 539 kts | 57° |
| 2026-05-05 19:24 | 59.23903 | 21.52771 | 37003 ft | 538 kts | 57° |
| 2026-05-05 19:25 | 59.25834 | 21.59020 | 36369 ft | 537 kts | 57° |
| 2026-05-05 19:25 | 59.27766 | 21.65303 | 35659 ft | 538 kts | 57° |
| 2026-05-05 19:25 | 59.29691 | 21.71589 | 34928 ft | 540 kts | 57° |
| 2026-05-05 19:25 | 59.31620 | 21.77912 | 34100 ft | 543 kts | 57° |
| 2026-05-05 19:26 | 59.33559 | 21.84285 | 33203 ft | 547 kts | 57° |
| 2026-05-05 19:26 | 59.35508 | 21.90694 | 32480 ft | 545 kts | 57° |
| 2026-05-05 19:26 | 59.37440 | 21.97065 | 31934 ft | 541 kts | 57° |
| 2026-05-05 19:26 | 59.39352 | 22.03397 | 31341 ft | 537 kts | 57° |
| 2026-05-05 19:27 | 59.41225 | 22.09615 | 30757 ft | 534 kts | 57° |
| 2026-05-05 19:27 | 59.43113 | 22.15900 | 30163 ft | 532 kts | 57° |
| 2026-05-05 19:27 | 59.44984 | 22.22141 | 29549 ft | 529 kts | 57° |
| 2026-05-05 19:27 | 59.46846 | 22.28369 | 28918 ft | 526 kts | 57° |
| 2026-05-05 19:28 | 59.48687 | 22.34545 | 28349 ft | 521 kts | 57° |
| 2026-05-05 19:28 | 59.50516 | 22.40696 | 27769 ft | 517 kts | 57° |
| 2026-05-05 19:28 | 59.52330 | 22.46805 | 27202 ft | 513 kts | 57° |
| 2026-05-05 19:28 | 59.54124 | 22.52864 | 26637 ft | 509 kts | 58° |
| 2026-05-05 19:29 | 59.55900 | 22.58895 | 26068 ft | 506 kts | 58° |
| 2026-05-05 19:29 | 59.57661 | 22.64894 | 25504 ft | 503 kts | 58° |
| 2026-05-05 19:29 | 59.59411 | 22.70872 | 24937 ft | 500 kts | 58° |
| 2026-05-05 19:29 | 59.61122 | 22.76732 | 24346 ft | 497 kts | 58° |
| 2026-05-05 19:30 | 59.62845 | 22.82644 | 23782 ft | 494 kts | 58° |
| 2026-05-05 19:30 | 59.64551 | 22.88510 | 23185 ft | 491 kts | 58° |
| 2026-05-05 19:30 | 59.66246 | 22.94352 | 22574 ft | 487 kts | 58° |
| 2026-05-05 19:30 | 59.67922 | 23.00146 | 21998 ft | 482 kts | 58° |
| 2026-05-05 19:31 | 59.69578 | 23.05888 | 21441 ft | 477 kts | 58° |
| 2026-05-05 19:31 | 59.71199 | 23.11512 | 20875 ft | 473 kts | 58° |
| 2026-05-05 19:31 | 59.72824 | 23.17157 | 20302 ft | 469 kts | 58° |
| 2026-05-05 19:31 | 59.74430 | 23.22751 | 19733 ft | 465 kts | 58° |
| 2026-05-05 19:32 | 59.76028 | 23.28328 | 19168 ft | 462 kts | 58° |
| 2026-05-05 19:32 | 59.77606 | 23.33852 | 18599 ft | 459 kts | 58° |
| 2026-05-05 19:32 | 59.79177 | 23.39364 | 17997 ft | 456 kts | 58° |
| 2026-05-05 19:32 | 59.80728 | 23.44822 | 17415 ft | 452 kts | 58° |
| 2026-05-05 19:33 | 59.82263 | 23.50236 | 16887 ft | 447 kts | 58° |
| 2026-05-05 19:33 | 59.83743 | 23.55471 | 16700 ft | 433 kts | 58° |
| 2026-05-05 19:33 | 59.85191 | 23.60605 | 16575 ft | 417 kts | 58° |
| 2026-05-05 19:33 | 59.86582 | 23.65557 | 16431 ft | 404 kts | 58° |
| 2026-05-05 19:34 | 59.87932 | 23.70368 | 16244 ft | 392 kts | 58° |
| 2026-05-05 19:34 | 59.89246 | 23.75053 | 15880 ft | 386 kts | 59° |
| 2026-05-05 19:34 | 59.90551 | 23.79708 | 15459 ft | 382 kts | 59° |
| 2026-05-05 19:35 | 59.93883 | 23.87515 | 14752 ft | 363 kts | 38° |
| 2026-05-05 19:35 | 59.95716 | 23.90937 | 14407 ft | 359 kts | 38° |
| 2026-05-05 19:35 | 59.97525 | 23.94341 | 14065 ft | 355 kts | 38° |
| 2026-05-05 19:35 | 59.99295 | 23.97696 | 13718 ft | 351 kts | 38° |
| 2026-05-05 19:36 | 60.01056 | 24.01053 | 13348 ft | 347 kts | 38° |
| 2026-05-05 19:36 | 60.02793 | 24.04374 | 13027 ft | 342 kts | 39° |
| 2026-05-05 19:36 | 60.04497 | 24.07638 | 12684 ft | 337 kts | 40° |
| 2026-05-05 19:36 | 60.06174 | 24.10861 | 12352 ft | 332 kts | 40° |
| 2026-05-05 19:37 | 60.07823 | 24.14038 | 12022 ft | 326 kts | 40° |
| 2026-05-05 19:37 | 60.09442 | 24.17163 | 11709 ft | 320 kts | 40° |
| 2026-05-05 19:37 | 60.11015 | 24.20199 | 11406 ft | 314 kts | 40° |
| 2026-05-05 19:37 | 60.12576 | 24.23216 | 11084 ft | 308 kts | 40° |
| 2026-05-05 19:38 | 60.14102 | 24.26177 | 10780 ft | 303 kts | 40° |
| 2026-05-05 19:38 | 60.15606 | 24.29097 | 10477 ft | 298 kts | 40° |
| 2026-05-05 19:38 | 60.17080 | 24.31964 | 10169 ft | 292 kts | 40° |
| 2026-05-05 19:38 | 60.18527 | 24.34781 | 9887 ft | 287 kts | 41° |
| 2026-05-05 19:39 | 60.19958 | 24.37569 | 9565 ft | 288 kts | 41° |
| 2026-05-05 19:39 | 60.21411 | 24.40397 | 9257 ft | 292 kts | 41° |
| 2026-05-05 19:39 | 60.22868 | 24.43242 | 8948 ft | 290 kts | 41° |
| 2026-05-05 19:39 | 60.24313 | 24.46071 | 8653 ft | 289 kts | 41° |
| 2026-05-05 19:40 | 60.25745 | 24.48877 | 8377 ft | 287 kts | 41° |
| 2026-05-05 19:40 | 60.27173 | 24.51677 | 8069 ft | 285 kts | 41° |
| 2026-05-05 19:40 | 60.28523 | 24.54605 | 7749 ft | 286 kts | 49° |
| 2026-05-05 19:40 | 60.29649 | 24.57854 | 7464 ft | 286 kts | 54° |
| 2026-05-05 19:41 | 60.30723 | 24.61210 | 7188 ft | 284 kts | 54° |
| 2026-05-05 19:41 | 60.31794 | 24.64559 | 6880 ft | 283 kts | 54° |
| 2026-05-05 19:41 | 60.32862 | 24.67882 | 6583 ft | 282 kts | 54° |
| 2026-05-05 19:41 | 60.33929 | 24.71191 | 6286 ft | 280 kts | 54° |
| 2026-05-05 19:42 | 60.35103 | 24.74304 | 5957 ft | 277 kts | 45° |
| 2026-05-05 19:42 | 60.36409 | 24.77149 | 5695 ft | 275 kts | 43° |
| 2026-05-05 19:42 | 60.37721 | 24.79931 | 5485 ft | 272 kts | 43° |
| 2026-05-05 19:42 | 60.39033 | 24.82722 | 5281 ft | 272 kts | 43° |
| 2026-05-05 19:43 | 60.40330 | 24.85494 | 5048 ft | 271 kts | 43° |
| 2026-05-05 19:43 | 60.41620 | 24.88262 | 4746 ft | 270 kts | 43° |
| 2026-05-05 19:43 | 60.42882 | 24.91018 | 4483 ft | 268 kts | 44° |
| 2026-05-05 19:43 | 60.44111 | 24.93751 | 4339 ft | 256 kts | 44° |
| 2026-05-05 19:44 | 60.45282 | 24.96360 | 4167 ft | 245 kts | 44° |
| 2026-05-05 19:44 | 60.46417 | 24.98879 | 3950 ft | 239 kts | 44° |
| 2026-05-05 19:44 | 60.47528 | 25.01351 | 3637 ft | 236 kts | 44° |
| 2026-05-05 19:44 | 60.48315 | 25.04300 | 3303 ft | 244 kts | 76° |
| 2026-05-05 19:45 | 60.48138 | 25.07668 | 3171 ft | 245 kts | 112° |
| 2026-05-05 19:45 | 60.47057 | 25.10254 | 2984 ft | 241 kts | 148° |
| 2026-05-05 19:45 | 60.45636 | 25.11850 | 2902 ft | 228 kts | 155° |
| 2026-05-05 19:45 | 60.44308 | 25.13345 | 2832 ft | 213 kts | 155° |
| 2026-05-05 19:46 | 60.42937 | 25.14060 | 2756 ft | 195 kts | 184° |
| 2026-05-05 19:46 | 60.41732 | 25.13401 | 2722 ft | 169 kts | 216° |
| 2026-05-05 19:46 | 60.40884 | 25.11898 | 2682 ft | 155 kts | 233° |
| 2026-05-05 19:46 | 60.40202 | 25.10325 | 2563 ft | 145 kts | 236° |
| 2026-05-05 19:47 | 60.39597 | 25.08712 | 2234 ft | 145 kts | 239° |
| 2026-05-05 19:47 | 60.38903 | 25.07221 | 1881 ft | 143 kts | 233° |
| 2026-05-05 19:47 | 60.38269 | 25.05794 | 1701 ft | 130 kts | 235° |
| 2026-05-05 19:47 | 60.37676 | 25.04482 | 1509 ft | 123 kts | 236° |
| 2026-05-05 19:48 | 60.37106 | 25.03198 | 1364 ft | 123 kts | 236° |
| 2026-05-05 19:48 | 60.36535 | 25.01927 | 1186 ft | 123 kts | 235° |
| 2026-05-05 19:48 | 60.35963 | 25.00646 | 1026 ft | 123 kts | 234° |
| 2026-05-05 19:48 | 60.35391 | 24.99368 | 845 ft | 122 kts | 233° |
| 2026-05-05 19:49 | 60.34812 | 24.98114 | 719 ft | 122 kts | 232° |
| 2026-05-05 19:49 | 60.34432 | 24.97279 | 614 ft | 122 kts | 232° |
| 2026-05-05 19:49 | 60.33657 | 24.95588 | 376 ft | 123 kts | 230° |
| 2026-05-05 19:49 | 60.33076 | 24.94317 | 243 ft | 122 kts | 231° |
| 2026-05-05 19:50 | 60.32500 | 24.93066 | 203 ft | 118 kts | 230° |
| 2026-05-05 19:50 | 60.31994 | 24.91926 | 158 ft | 96 kts | 229° |
| 2026-05-05 19:50 | 60.31736 | 24.91358 | 154 ft | 24 kts | 227° |
| 2026-05-05 19:50 | 60.31624 | 24.91108 | 151 ft | 25 kts | 228° |
| 2026-05-05 19:51 | 60.31505 | 24.90848 | 149 ft | 26 kts | 227° |
| 2026-05-05 19:51 | 60.31393 | 24.90605 | 150 ft | 21 kts | 227° |
| 2026-05-05 19:51 | 60.31286 | 24.90512 | 149 ft | 17 kts | 180° |
| 2026-05-05 19:51 | 60.31180 | 24.90645 | 146 ft | 19 kts | 121° |
| 2026-05-05 19:52 | 60.31173 | 24.90885 | 146 ft | 11 kts | 69° |
| 2026-05-05 19:52 | 60.31222 | 24.91026 | 147 ft | 14 kts | 47° |
| 2026-05-05 19:52 | 60.31295 | 24.91184 | 149 ft | 17 kts | 47° |
| 2026-05-05 19:52 | 60.31377 | 24.91364 | 153 ft | 18 kts | 47° |
| 2026-05-05 19:53 | 60.31462 | 24.91550 | 159 ft | 18 kts | 47° |
| 2026-05-05 19:53 | 60.31547 | 24.91737 | 165 ft | 18 kts | 47° |
| 2026-05-05 19:53 | 60.31637 | 24.91936 | 167 ft | 20 kts | 47° |
| 2026-05-05 19:53 | 60.31736 | 24.92155 | 168 ft | 15 kts | 47° |
| 2026-05-05 19:54 | 60.31752 | 24.92288 | 168 ft | 11 kts | 112° |
| 2026-05-05 19:54 | 60.31698 | 24.92416 | 169 ft | 13 kts | 136° |
| 2026-05-05 19:54 | 60.31622 | 24.92557 | 170 ft | 16 kts | 137° |
| 2026-05-05 19:54 | 60.31533 | 24.92722 | 172 ft | 19 kts | 137° |
| 2026-05-05 19:55 | 60.31424 | 24.92921 | 170 ft | 23 kts | 137° |
| 2026-05-05 19:55 | 60.31293 | 24.93163 | 168 ft | 27 kts | 137° |
| 2026-05-05 19:55 | 60.31143 | 24.93440 | 165 ft | 31 kts | 137° |
| 2026-05-05 19:55 | 60.31026 | 24.93659 | 166 ft | 22 kts | 137° |
| 2026-05-05 19:56 | 60.30994 | 24.93891 | 165 ft | 19 kts | 59° |
| 2026-05-05 19:56 | 60.31090 | 24.94113 | 163 ft | 23 kts | 47° |
| 2026-05-05 19:56 | 60.31206 | 24.94366 | 165 ft | 26 kts | 47° |
| 2026-05-05 19:56 | 60.31329 | 24.94639 | 167 ft | 26 kts | 48° |
| 2026-05-05 19:57 | 60.31434 | 24.94876 | 173 ft | 15 kts | 59° |
| 2026-05-05 19:57 | 60.31430 | 24.94989 | 174 ft | 11 kts | 114° |
| 2026-05-05 19:57 | 60.31383 | 24.95163 | 173 ft | 8 kts | 89° |
| 2026-05-05 19:57 | 60.31403 | 24.95236 | 173 ft | 5 kts | 53° |
| 2026-05-05 19:58 | 60.31410 | 24.95280 | 173 ft | 2 kts | 89° |
| 2026-05-05 19:58 | 60.31401 | 24.95316 | 173 ft | 5 kts | 120° |
| 2026-05-05 19:58 | 60.31378 | 24.95367 | 173 ft | 5 kts | 134° |
| 2026-05-05 19:58 | 60.31367 | 24.95389 | 173 ft | 0 kts | 135° |